KMMU/MMU METAR and TAF weather

Enter ICAO airport designator
Station Type Date Time Source
KMMU METAR 2022/12/04 11:35 UTC NOAA

KMMU 041135Z AUTO 00000KT 10SM CLR M02/M04 A3023 RMK AO2


Station Type Date Time Source
KMMU Decoded METAR 2022/12/04 11:35 UTC NOAA

Morristown Municipal, NJ, United States (KMMU) 40-48N 074-25W
Dec 04, 2022 - 06:35 AM EST / 2022.12.04 1135 UTC
Wind: Calm:0
Visibility: 10 mile(s):0
Sky conditions: clear
Temperature: 28 F (-2 C)
Dew Point: 24 F (-4 C)
Relative Humidity: 86%
Pressure (altimeter): 30.23 in. Hg (1023 hPa)
ob: KMMU 041135Z AUTO 00000KT 10SM CLR M02/M04 A3023 RMK AO2
cycle: 11

Station Type Date Time Source
KMMU TAF UTC NOAA

Error!

Example: see airport list